createdAt,value
2022-12-23T00:00:07.151Z,90.54
2022-12-23T00:03:14.627Z,90.60
2022-12-23T00:06:20.425Z,90.72
2022-12-23T00:09:23.100Z,90.96
2022-12-23T00:12:44.093Z,91.43
2022-12-23T00:15:46.707Z,90.99
2022-12-23T00:18:50.819Z,91.13
2022-12-23T00:21:53.450Z,91.19
2022-12-23T00:24:56.080Z,91.06
2022-12-23T00:28:01.548Z,91.05
2022-12-23T00:31:06.950Z,91.04
2022-12-23T00:34:11.972Z,90.86
2022-12-23T00:37:14.642Z,90.36
2022-12-23T00:40:35.832Z,90.75
2022-12-23T00:43:38.507Z,90.41
2022-12-23T00:46:41.490Z,90.79
2022-12-23T00:49:45.665Z,90.51
2022-12-23T00:52:48.352Z,90.17
2022-12-23T00:55:51.360Z,90.15
2022-12-23T00:58:53.992Z,90.51
2022-12-23T01:02:15.782Z,90.75
2022-12-23T01:05:38.399Z,90.57
2022-12-23T01:08:41.537Z,90.59
2022-12-23T01:11:44.150Z,90.63
2022-12-23T01:14:46.853Z,91.10
2022-12-23T01:17:49.499Z,91.31
2022-12-23T01:20:53.754Z,91.69
2022-12-23T01:23:56.363Z,91.93
2022-12-23T01:26:59.167Z,92.32
2022-12-23T01:30:01.962Z,91.64
2022-12-23T01:33:06.023Z,91.48
2022-12-23T01:36:10.951Z,91.14
2022-12-23T01:39:13.673Z,90.58
2022-12-23T01:42:37.306Z,91.29
2022-12-23T01:45:39.964Z,91.08
2022-12-23T01:48:45.506Z,91.24
2022-12-23T01:51:49.693Z,91.37
2022-12-23T01:54:53.013Z,90.96
2022-12-23T01:58:00.682Z,91.03
2022-12-23T02:01:22.956Z,91.03
2022-12-23T02:04:26.172Z,91.42
2022-12-23T02:07:50.265Z,91.28
2022-12-23T02:11:15.860Z,92.09
2022-12-23T02:14:49.331Z,92.04
2022-12-23T02:18:06.304Z,91.97
2022-12-23T02:21:27.289Z,92.50
2022-12-23T02:25:05.793Z,92.06
2022-12-23T02:28:40.880Z,91.63
2022-12-23T02:31:55.244Z,91.49
2022-12-23T02:35:04.942Z,91.87
2022-12-23T02:38:12.576Z,92.28
2022-12-23T02:41:23.382Z,92.08
2022-12-23T02:44:33.209Z,91.53
2022-12-23T02:47:42.238Z,91.74
2022-12-23T02:50:48.172Z,91.95
2022-12-23T02:53:54.428Z,91.69
2022-12-23T02:57:00.725Z,91.24
2022-12-23T03:00:05.525Z,91.39
2022-12-23T03:03:12.101Z,92.05
2022-12-23T03:06:21.737Z,91.99
2022-12-23T03:09:31.283Z,90.99
2022-12-23T03:12:47.220Z,91.15
2022-12-23T03:15:59.421Z,91.54
2022-12-23T03:19:14.345Z,91.11
2022-12-23T03:22:25.838Z,91.13
2022-12-23T03:25:33.931Z,91.19
2022-12-23T03:28:44.152Z,91.39
2022-12-23T03:31:48.772Z,91.38
2022-12-23T03:34:56.925Z,91.91
2022-12-23T03:38:02.351Z,91.17
2022-12-23T03:41:09.929Z,90.90
2022-12-23T03:44:19.566Z,90.76
2022-12-23T03:47:28.042Z,90.94
2022-12-23T03:50:36.454Z,91.03
2022-12-23T03:53:44.830Z,91.11
2022-12-23T03:56:53.158Z,90.91
2022-12-23T03:59:56.337Z,91.23
2022-12-23T04:03:10.285Z,90.60
2022-12-23T04:06:17.593Z,91.01
2022-12-23T04:09:22.563Z,91.26
2022-12-23T04:12:31.106Z,90.62
2022-12-23T04:15:38.706Z,91.44
2022-12-23T04:18:41.434Z,90.32
2022-12-23T04:21:45.528Z,90.56
2022-12-23T04:24:48.141Z,90.71
2022-12-23T04:27:50.748Z,90.98
2022-12-23T04:30:53.557Z,90.83
2022-12-23T04:33:56.696Z,90.86
2022-12-23T04:37:00.858Z,90.96
2022-12-23T04:40:04.213Z,90.46
2022-12-23T04:43:06.938Z,91.11
2022-12-23T04:46:09.515Z,91.59
2022-12-23T04:49:12.150Z,91.16
2022-12-23T04:52:16.436Z,91.56
2022-12-23T04:55:19.084Z,91.24
2022-12-23T04:58:22.338Z,91.58
2022-12-23T05:01:24.967Z,91.21
2022-12-23T05:04:28.995Z,91.74
2022-12-23T05:07:33.044Z,91.99
2022-12-23T05:10:37.546Z,91.88
2022-12-23T05:13:40.242Z,91.84
2022-12-23T05:16:42.831Z,92.47
2022-12-23T05:19:45.750Z,91.57
2022-12-23T05:22:50.328Z,91.49
2022-12-23T05:25:54.216Z,91.92
2022-12-23T05:28:56.878Z,91.60
2022-12-23T05:31:59.605Z,91.85
2022-12-23T05:35:02.431Z,92.50
2022-12-23T05:38:06.639Z,92.30
2022-12-23T05:41:09.316Z,92.56
2022-12-23T05:44:12.007Z,92.17
2022-12-23T05:47:14.731Z,92.50
2022-12-23T05:50:17.721Z,92.66
2022-12-23T05:53:21.994Z,91.87
2022-12-23T05:56:24.689Z,92.15
2022-12-23T05:59:30.969Z,92.17
2022-12-23T06:02:34.516Z,92.20
2022-12-23T06:05:38.999Z,92.70
2022-12-23T06:08:43.140Z,92.59
2022-12-23T06:11:46.074Z,92.91
2022-12-23T06:14:48.801Z,92.78
2022-12-23T06:17:51.681Z,93.04
2022-12-23T06:20:54.568Z,92.97
2022-12-23T06:23:58.906Z,93.17
2022-12-23T06:27:01.682Z,93.40
2022-12-23T06:30:05.165Z,93.63
2022-12-23T06:33:08.120Z,93.61
2022-12-23T06:36:10.915Z,94.20
2022-12-23T06:39:15.040Z,94.08
2022-12-23T06:42:17.745Z,93.82
2022-12-23T06:45:20.452Z,93.68
2022-12-23T06:48:23.066Z,93.97
2022-12-23T06:51:25.758Z,93.72
2022-12-23T06:54:29.844Z,93.50
2022-12-23T06:57:32.613Z,93.25
2022-12-23T07:00:39.749Z,94.03
2022-12-23T07:03:42.523Z,93.99
2022-12-23T07:06:45.322Z,93.54
2022-12-23T07:09:49.458Z,93.60
2022-12-23T07:12:52.118Z,93.51
2022-12-23T07:15:55.142Z,93.89
2022-12-23T07:18:57.930Z,93.68
2022-12-23T07:22:03.942Z,93.70
2022-12-23T07:25:09.200Z,93.66
2022-12-23T07:28:11.949Z,93.06
2022-12-23T07:31:15.023Z,92.74
2022-12-23T07:34:18.875Z,93.69
2022-12-23T07:37:21.482Z,92.56
2022-12-23T07:40:27.330Z,92.86
2022-12-23T07:43:30.041Z,92.35
2022-12-23T07:46:32.964Z,91.83
2022-12-23T07:49:35.800Z,92.02
2022-12-23T07:52:38.953Z,91.39
2022-12-23T07:55:42.923Z,91.24
2022-12-23T07:58:48.508Z,91.60
2022-12-23T08:01:51.169Z,91.81
2022-12-23T08:04:53.936Z,91.70
2022-12-23T08:07:56.565Z,91.46
2022-12-23T08:11:03.823Z,91.39
2022-12-23T08:14:07.071Z,91.44
2022-12-23T08:17:09.922Z,91.33
2022-12-23T08:20:13.062Z,91.64
2022-12-23T08:23:21.382Z,92.09
2022-12-23T08:26:28.433Z,91.74
2022-12-23T08:29:36.020Z,90.53
2022-12-23T08:32:39.342Z,90.88
2022-12-23T08:35:42.076Z,89.85
2022-12-23T08:38:45.626Z,90.44
2022-12-23T08:41:49.727Z,89.46
2022-12-23T08:44:56.719Z,90.02
2022-12-23T08:47:59.426Z,89.43
2022-12-23T08:51:05.687Z,89.40
2022-12-23T08:54:08.478Z,89.97
2022-12-23T08:57:12.617Z,90.25
2022-12-23T09:00:17.299Z,89.83
2022-12-23T09:03:20.221Z,90.70
2022-12-23T09:06:29.697Z,91.33
2022-12-23T09:09:33.523Z,90.51
2022-12-23T09:12:37.639Z,90.80
2022-12-23T09:15:42.305Z,90.75
2022-12-23T09:18:45.177Z,90.70
2022-12-23T09:21:48.112Z,89.95
2022-12-23T09:24:51.199Z,90.29
2022-12-23T09:27:55.469Z,88.74
2022-12-23T09:30:58.311Z,88.67
2022-12-23T09:34:01.371Z,89.09
2022-12-23T09:37:04.602Z,89.57
2022-12-23T09:40:11.048Z,89.42
2022-12-23T09:43:25.063Z,90.90
2022-12-23T09:46:32.849Z,90.09
2022-12-23T09:49:44.947Z,90.65
2022-12-23T09:52:57.851Z,90.83
2022-12-23T09:56:06.637Z,90.27
2022-12-23T09:59:22.429Z,90.40
2022-12-23T10:02:37.584Z,88.12
2022-12-23T10:05:56.292Z,88.59
2022-12-23T10:09:01.565Z,88.36
2022-12-23T10:12:14.342Z,88.38
2022-12-23T10:15:26.093Z,87.86
2022-12-23T10:18:44.741Z,89.02
2022-12-23T10:21:50.650Z,89.01
2022-12-23T10:24:55.569Z,89.64
2022-12-23T10:27:58.393Z,87.94
2022-12-23T10:31:30.904Z,87.89
2022-12-23T10:34:40.563Z,88.15
2022-12-23T10:37:55.348Z,87.82
2022-12-23T10:41:09.469Z,87.11
2022-12-23T10:44:33.422Z,87.80
2022-12-23T10:47:48.304Z,87.71
2022-12-23T10:50:59.545Z,87.34
2022-12-23T10:54:06.825Z,88.01
2022-12-23T10:57:10.462Z,86.79
2022-12-23T11:00:21.817Z,86.37
2022-12-23T11:03:28.885Z,86.17
2022-12-23T11:06:37.479Z,86.56
2022-12-23T11:09:44.156Z,86.62
2022-12-23T11:12:49.999Z,87.36
2022-12-23T11:15:53.061Z,86.85
2022-12-23T11:19:00.736Z,86.51
2022-12-23T11:22:04.146Z,85.45
2022-12-23T11:25:27.145Z,86.00
2022-12-23T11:28:31.514Z,85.76
2022-12-23T11:31:36.523Z,86.68
2022-12-23T11:34:45.846Z,86.96
2022-12-23T11:37:48.585Z,87.24
2022-12-23T11:40:51.469Z,86.78
2022-12-23T11:44:00.100Z,86.86
2022-12-23T11:47:23.120Z,87.54
2022-12-23T11:50:31.624Z,86.98
2022-12-23T11:53:36.715Z,85.96
2022-12-23T11:56:41.024Z,86.35
2022-12-23T11:59:51.273Z,85.44
2022-12-23T12:02:57.112Z,85.50
2022-12-23T12:06:03.706Z,85.45
2022-12-23T12:09:06.928Z,85.43
2022-12-23T12:12:17.511Z,85.55
2022-12-23T12:15:29.189Z,86.04
2022-12-23T12:18:34.038Z,86.00
2022-12-23T12:21:39.166Z,85.94
2022-12-23T12:24:51.008Z,85.96
2022-12-23T12:27:58.103Z,85.20
2022-12-23T12:31:11.719Z,86.17
2022-12-23T12:34:25.642Z,85.65
2022-12-23T12:37:39.716Z,85.87
2022-12-23T12:40:51.091Z,86.19
2022-12-23T12:44:17.568Z,86.36
2022-12-23T12:47:52.686Z,86.73
2022-12-23T12:51:01.259Z,87.50
2022-12-23T12:54:15.911Z,86.94
2022-12-23T12:57:21.354Z,86.66
2022-12-23T13:00:25.148Z,86.92
2022-12-23T13:03:51.591Z,87.04
2022-12-23T13:07:04.903Z,87.42
2022-12-23T13:10:14.819Z,86.72
2022-12-23T13:13:32.403Z,86.95
2022-12-23T13:16:45.551Z,87.33
2022-12-23T13:19:56.887Z,86.80
2022-12-23T13:23:41.117Z,86.46
2022-12-23T13:26:37.802Z,86.42
2022-12-23T13:29:57.548Z,86.85
2022-12-23T13:33:14.958Z,87.57
2022-12-23T13:36:32.708Z,88.18
2022-12-23T13:39:49.400Z,87.21
2022-12-23T13:42:59.749Z,87.20
2022-12-23T13:46:08.352Z,87.80
2022-12-23T13:49:19.987Z,88.52
2022-12-23T13:52:47.621Z,88.56
2022-12-23T13:56:06.046Z,88.17
2022-12-23T13:59:11.941Z,88.74
2022-12-23T14:02:40.872Z,88.95
2022-12-23T14:05:45.536Z,89.36
2022-12-23T14:08:48.777Z,89.90
2022-12-23T14:11:52.856Z,90.51
2022-12-23T14:15:28.090Z,90.42
2022-12-23T14:18:45.111Z,90.32
2022-12-23T14:21:57.933Z,90.65
2022-12-23T14:25:40.776Z,90.68
2022-12-23T14:28:56.473Z,90.74
2022-12-23T14:32:01.092Z,91.25
2022-12-23T14:35:17.320Z,91.31
2022-12-23T14:38:31.177Z,92.42
2022-12-23T14:41:38.924Z,92.75
2022-12-23T14:44:50.259Z,92.38
2022-12-23T14:47:54.384Z,92.76
2022-12-23T14:51:02.731Z,93.09
2022-12-23T14:54:15.958Z,93.02
2022-12-23T14:57:25.271Z,93.16
2022-12-23T15:00:32.199Z,93.13
2022-12-23T15:03:43.629Z,92.92
2022-12-23T15:06:48.484Z,93.36
2022-12-23T15:10:00.275Z,93.32
2022-12-23T15:13:06.037Z,93.41
2022-12-23T15:16:16.879Z,93.28
2022-12-23T15:19:24.351Z,93.34
2022-12-23T15:22:32.628Z,93.31
2022-12-23T15:25:39.996Z,93.28
2022-12-23T15:28:42.913Z,93.08
2022-12-23T15:31:48.682Z,92.93
2022-12-23T15:34:58.914Z,93.20
2022-12-23T15:38:02.891Z,93.62
2022-12-23T15:41:15.119Z,93.79
2022-12-23T15:44:20.838Z,93.88
2022-12-23T15:47:25.795Z,93.29
2022-12-23T15:50:40.289Z,93.58
2022-12-23T15:53:46.832Z,94.11
2022-12-23T15:56:52.319Z,93.67
2022-12-23T15:59:56.109Z,94.19
2022-12-23T16:03:01.226Z,94.47
2022-12-23T16:06:17.810Z,94.19
2022-12-23T16:09:31.787Z,94.43
2022-12-23T16:12:34.939Z,93.93
2022-12-23T16:15:37.647Z,93.86
2022-12-23T16:18:47.165Z,93.77
2022-12-23T16:21:51.588Z,93.73
2022-12-23T16:25:01.590Z,93.86
2022-12-23T16:28:07.661Z,93.76
2022-12-23T16:31:11.346Z,93.95
2022-12-23T16:34:14.091Z,93.53
2022-12-23T16:37:18.254Z,93.48
2022-12-23T16:40:24.596Z,93.59
2022-12-23T16:43:27.634Z,93.56
2022-12-23T16:46:36.365Z,93.86
2022-12-23T16:49:39.141Z,93.78
2022-12-23T16:52:43.349Z,94.21
2022-12-23T16:55:53.879Z,94.20
2022-12-23T16:58:57.911Z,94.32
2022-12-23T17:02:03.742Z,94.14
2022-12-23T17:05:07.855Z,94.12
2022-12-23T17:08:12.084Z,94.12
2022-12-23T17:11:17.467Z,94.78
2022-12-23T17:14:22.350Z,95.24
2022-12-23T17:17:26.047Z,95.10
2022-12-23T17:20:28.969Z,94.67
2022-12-23T17:23:33.089Z,94.51
2022-12-23T17:26:35.832Z,94.33
2022-12-23T17:29:38.472Z,94.69
2022-12-23T17:32:41.586Z,94.59
2022-12-23T17:35:44.365Z,94.78
2022-12-23T17:38:48.457Z,94.57
2022-12-23T17:41:51.385Z,94.42
2022-12-23T17:44:54.085Z,94.61
2022-12-23T17:47:57.190Z,94.60
2022-12-23T17:51:00.096Z,94.92
2022-12-23T17:54:06.452Z,94.47
2022-12-23T17:57:17.799Z,94.68
2022-12-23T18:00:29.864Z,94.70
2022-12-23T18:03:36.957Z,94.28
2022-12-23T18:06:39.563Z,94.09
2022-12-23T18:09:44.014Z,94.15
2022-12-23T18:12:49.989Z,94.46
2022-12-23T18:15:52.678Z,93.85
2022-12-23T18:18:55.620Z,94.07
2022-12-23T18:21:58.820Z,94.35
2022-12-23T18:25:03.378Z,94.45
2022-12-23T18:28:06.324Z,94.52
2022-12-23T18:31:15.206Z,94.57
2022-12-23T18:34:22.279Z,94.84
2022-12-23T18:37:25.022Z,94.35
2022-12-23T18:40:33.158Z,94.09
2022-12-23T18:43:37.183Z,94.03
2022-12-23T18:46:39.808Z,94.56
2022-12-23T18:49:43.197Z,93.62
2022-12-23T18:52:46.675Z,94.42
2022-12-23T18:55:51.174Z,94.35
2022-12-23T18:58:53.821Z,94.06
2022-12-23T19:01:56.968Z,94.00
2022-12-23T19:04:59.881Z,95.30
2022-12-23T19:08:02.699Z,95.35
2022-12-23T19:11:11.463Z,94.91
2022-12-23T19:14:14.755Z,94.63
2022-12-23T19:17:17.568Z,94.65
2022-12-23T19:20:25.504Z,94.32
2022-12-23T19:23:28.787Z,93.70
2022-12-23T19:26:32.777Z,94.29
2022-12-23T19:29:35.567Z,94.38
2022-12-23T19:32:38.159Z,93.75
2022-12-23T19:35:42.048Z,93.15
2022-12-23T19:38:45.061Z,93.56
2022-12-23T19:41:49.264Z,93.59
2022-12-23T19:44:52.023Z,93.97
2022-12-23T19:47:54.690Z,93.90
2022-12-23T19:50:59.029Z,93.48
2022-12-23T19:54:01.797Z,94.11
2022-12-23T19:57:05.783Z,93.19
2022-12-23T20:00:09.991Z,93.29
2022-12-23T20:03:15.988Z,92.80
2022-12-23T20:06:20.946Z,93.16
2022-12-23T20:09:23.835Z,93.03
2022-12-23T20:12:28.062Z,92.67
2022-12-23T20:15:30.728Z,92.74
2022-12-23T20:18:34.209Z,93.21
2022-12-23T20:21:40.142Z,93.30
2022-12-23T20:24:44.216Z,93.25
2022-12-23T20:27:48.241Z,93.28
2022-12-23T20:30:58.933Z,93.48
2022-12-23T20:34:02.457Z,94.17
2022-12-23T20:37:05.152Z,93.67
2022-12-23T20:40:10.401Z,93.36
2022-12-23T20:43:15.461Z,92.75
2022-12-23T20:46:19.125Z,91.94
2022-12-23T20:49:21.858Z,93.64
2022-12-23T20:52:25.589Z,92.39
2022-12-23T20:55:28.202Z,92.47
2022-12-23T20:58:50.517Z,92.47
2022-12-23T21:01:53.324Z,93.32
2022-12-23T21:04:56.022Z,93.38
2022-12-23T21:07:58.704Z,93.02
2022-12-23T21:11:03.459Z,92.89
2022-12-23T21:14:08.072Z,92.94
2022-12-23T21:17:10.811Z,93.62
2022-12-23T21:20:13.552Z,92.94
2022-12-23T21:23:16.560Z,93.87
2022-12-23T21:26:21.639Z,93.45
2022-12-23T21:29:26.210Z,92.96
2022-12-23T21:32:28.894Z,91.71
2022-12-23T21:35:31.559Z,92.86
2022-12-23T21:38:36.038Z,93.75
2022-12-23T21:41:41.239Z,93.39
2022-12-23T21:44:45.295Z,91.26
2022-12-23T21:47:47.976Z,91.53
2022-12-23T21:50:54.967Z,91.39
2022-12-23T21:53:59.077Z,92.84
2022-12-23T21:57:01.747Z,93.39
2022-12-23T22:00:07.180Z,92.41
2022-12-23T22:03:09.828Z,92.12
2022-12-23T22:06:15.249Z,92.21
2022-12-23T22:09:19.686Z,91.89
2022-12-23T22:12:22.393Z,92.20
2022-12-23T22:15:26.351Z,92.73
2022-12-23T22:18:29.010Z,92.31
2022-12-23T22:21:33.963Z,91.98
2022-12-23T22:24:36.812Z,92.20
2022-12-23T22:27:39.519Z,91.93
2022-12-23T22:30:43.602Z,92.59
2022-12-23T22:33:46.976Z,92.11
2022-12-23T22:36:50.245Z,91.73
2022-12-23T22:39:53.104Z,92.06
2022-12-23T22:42:57.331Z,92.13
2022-12-23T22:46:02.452Z,92.30
2022-12-23T22:49:05.739Z,92.43
2022-12-23T22:52:08.461Z,92.37
2022-12-23T22:55:11.168Z,92.00
2022-12-23T22:58:13.876Z,92.13
2022-12-23T23:01:22.467Z,92.07
2022-12-23T23:04:25.388Z,92.41
2022-12-23T23:07:27.978Z,92.04
2022-12-23T23:10:33.435Z,92.34
2022-12-23T23:13:36.338Z,91.86
2022-12-23T23:16:40.731Z,91.82
2022-12-23T23:19:43.450Z,91.56
2022-12-23T23:22:46.110Z,91.66
2022-12-23T23:25:49.767Z,92.04
2022-12-23T23:28:52.492Z,92.21
2022-12-23T23:31:58.700Z,91.35
2022-12-23T23:35:08.581Z,91.24
2022-12-23T23:38:13.100Z,91.60
2022-12-23T23:41:20.651Z,91.29
2022-12-23T23:44:25.784Z,91.75
2022-12-23T23:47:34.444Z,91.30
2022-12-23T23:50:37.151Z,91.29
2022-12-23T23:53:40.468Z,90.92
2022-12-23T23:56:43.234Z,90.53
2022-12-23T23:59:45.880Z,91.08
